createdAt,value
2023-04-03T00:08:19.540Z,3.70
2023-04-03T00:18:18.591Z,3.60
2023-04-03T00:28:17.630Z,3.50
2023-04-03T00:38:16.692Z,3.40
2023-04-03T00:48:15.923Z,3.40
2023-04-03T00:58:14.551Z,3.40
2023-04-03T01:08:13.705Z,3.30
2023-04-03T01:18:12.555Z,3.20
2023-04-03T01:28:11.801Z,3.20
2023-04-03T01:38:11.534Z,3.20
2023-04-03T01:48:10.765Z,3.20
2023-04-03T01:58:10.443Z,3.20
2023-04-03T02:08:09.757Z,3.10
2023-04-03T02:18:08.672Z,3.00
2023-04-03T02:28:07.606Z,3.00
2023-04-03T02:38:07.972Z,3.00
2023-04-03T02:48:06.706Z,3.00
2023-04-03T02:58:07.401Z,3.00
2023-04-03T03:08:06.586Z,2.90
2023-04-03T03:18:05.906Z,3.00
2023-04-03T03:28:04.874Z,3.10
2023-04-03T03:38:03.792Z,3.10
2023-04-03T03:48:03.029Z,3.20
2023-04-03T03:58:03.447Z,3.10
2023-04-03T04:08:02.706Z,3.10
2023-04-03T04:18:01.795Z,3.10
2023-04-03T04:28:00.993Z,3.10
2023-04-03T04:38:00.740Z,3.10
2023-04-03T04:48:00.123Z,3.10
2023-04-03T04:57:58.874Z,3.10
2023-04-03T05:07:58.075Z,3.00
2023-04-03T05:17:56.761Z,3.00
2023-04-03T05:27:55.959Z,3.00
2023-04-03T05:37:55.357Z,3.00
2023-04-03T05:47:54.829Z,3.10
2023-04-03T05:57:54.154Z,3.10
2023-04-03T06:07:52.756Z,3.20
2023-04-03T06:17:52.201Z,3.30
2023-04-03T06:27:51.651Z,3.50
2023-04-03T06:37:50.736Z,3.70
2023-04-03T06:47:49.687Z,3.80
2023-04-03T06:57:48.823Z,4.00
2023-04-03T07:07:47.693Z,4.30
2023-04-03T07:17:47.228Z,4.70
2023-04-03T07:27:46.587Z,5.20
2023-04-03T07:37:46.885Z,5.60
2023-04-03T07:47:46.022Z,5.90
2023-04-03T07:57:44.601Z,6.40
2023-04-03T08:07:43.584Z,6.70
2023-04-03T08:17:42.872Z,6.90
2023-04-03T08:27:41.941Z,7.60
2023-04-03T08:37:40.896Z,8.00
2023-04-03T08:47:39.705Z,8.00
2023-04-03T08:57:38.716Z,8.30
2023-04-03T09:07:38.441Z,8.70
2023-04-03T09:17:38.133Z,9.20
2023-04-03T09:27:36.943Z,9.30
2023-04-03T09:37:35.772Z,9.40
2023-04-03T09:47:35.617Z,9.60
2023-04-03T09:57:35.711Z,9.60
2023-04-03T10:07:34.828Z,9.70
2023-04-03T10:17:35.311Z,10.00
2023-04-03T10:27:34.938Z,10.10
2023-04-03T10:37:35.602Z,10.40
2023-04-03T10:47:36.574Z,10.60
2023-04-03T10:57:36.722Z,10.70
2023-04-03T11:07:36.785Z,10.90
2023-04-03T11:17:35.779Z,11.20
2023-04-03T11:27:35.014Z,11.40
2023-04-03T11:37:34.514Z,11.40
2023-04-03T11:47:33.884Z,11.60
2023-04-03T11:57:33.029Z,11.70
2023-04-03T12:07:31.965Z,12.00
2023-04-03T12:17:31.398Z,12.10
2023-04-03T12:27:29.885Z,12.30
2023-04-03T12:37:28.907Z,12.20
2023-04-03T12:47:28.286Z,12.20
2023-04-03T12:57:27.994Z,12.50
2023-04-03T13:07:28.754Z,12.50
2023-04-03T13:17:28.619Z,12.30
2023-04-03T13:27:27.824Z,12.40
2023-04-03T13:37:27.073Z,12.60
2023-04-03T13:47:26.263Z,12.80
2023-04-03T13:57:25.037Z,12.80
2023-04-03T14:07:24.314Z,12.70
2023-04-03T14:17:25.124Z,12.60
2023-04-03T14:27:24.865Z,12.50
2023-04-03T14:37:24.028Z,12.40
2023-04-03T14:47:30.524Z,12.50
2023-04-03T14:57:24.524Z,12.60
2023-04-03T15:07:24.030Z,12.40
2023-04-03T15:17:22.976Z,12.30
2023-04-03T15:27:22.153Z,12.10
2023-04-03T15:37:20.966Z,11.70
2023-04-03T15:47:19.949Z,11.30
2023-04-03T15:57:18.927Z,11.40
2023-04-03T16:07:18.112Z,11.20
2023-04-03T16:17:17.066Z,10.80
2023-04-03T16:27:15.994Z,10.60
2023-04-03T16:37:15.556Z,10.30
2023-04-03T16:47:15.810Z,10.10
2023-04-03T16:57:15.000Z,10.00
2023-04-03T17:07:13.953Z,9.90
2023-04-03T17:17:13.195Z,10.20
2023-04-03T17:27:12.129Z,10.20
2023-04-03T17:37:11.216Z,9.90
2023-04-03T17:47:10.740Z,9.80
2023-04-03T17:57:10.084Z,9.20
2023-04-03T18:07:09.596Z,8.70
2023-04-03T18:17:09.312Z,8.30
2023-04-03T18:27:08.071Z,8.00
2023-04-03T18:37:07.064Z,7.80
2023-04-03T18:47:06.442Z,7.60
2023-04-03T18:57:05.175Z,7.40
2023-04-03T19:07:05.915Z,7.30
2023-04-03T19:17:07.023Z,7.20
2023-04-03T19:27:06.573Z,7.00
2023-04-03T19:37:06.304Z,6.90
2023-04-03T19:47:05.131Z,6.70
2023-04-03T19:57:04.180Z,6.60
2023-04-03T20:07:03.669Z,6.60
2023-04-03T20:17:03.983Z,6.50
2023-04-03T20:27:03.206Z,6.50
2023-04-03T20:37:02.165Z,6.40
2023-04-03T20:47:01.325Z,6.30
2023-04-03T20:57:01.992Z,6.30
2023-04-03T21:07:02.928Z,6.20
2023-04-03T21:17:02.466Z,6.20
2023-04-03T21:27:03.642Z,6.10
2023-04-03T21:37:04.362Z,5.90
2023-04-03T21:47:03.321Z,5.70
2023-04-03T21:57:02.588Z,5.60
2023-04-03T22:07:03.165Z,5.60
2023-04-03T22:17:02.344Z,5.50
2023-04-03T22:27:01.448Z,5.40
2023-04-03T22:37:00.686Z,5.30
2023-04-03T22:47:01.021Z,5.10
2023-04-03T22:57:00.388Z,4.90
2023-04-03T23:06:59.873Z,4.70
2023-04-03T23:17:01.601Z,4.50
2023-04-03T23:27:00.563Z,4.20
2023-04-03T23:36:59.384Z,3.90
2023-04-03T23:46:58.667Z,3.70
2023-04-03T23:56:59.143Z,3.50
